createdAt,value
2022-10-25T03:11:09.264Z,100250.91
2022-10-25T03:14:11.722Z,100250.91
2022-10-25T03:17:13.758Z,100249.41
2022-10-25T03:20:16.134Z,100252.91
2022-10-25T03:23:18.216Z,100271.22
2022-10-25T03:26:20.814Z,100265.78
2022-10-25T03:29:22.889Z,100244.84
2022-10-25T03:32:25.220Z,100246.66
2022-10-25T03:35:27.841Z,100245.06
2022-10-25T03:38:30.171Z,100245.88
2022-10-25T03:41:32.281Z,100253.03
2022-10-25T03:44:34.678Z,100256.72
2022-10-25T03:47:36.790Z,100249.56
2022-10-25T03:50:39.194Z,100254.34
2022-10-25T03:53:41.235Z,100260.41
2022-10-25T03:56:43.575Z,100255.59
2022-10-25T03:59:45.617Z,100247.28
2022-10-25T04:02:48.036Z,100240.44
2022-10-25T04:05:51.370Z,100227.41
2022-10-25T04:08:53.420Z,100222.38
2022-10-25T04:11:55.801Z,100226.72
2022-10-25T04:14:57.842Z,100232.72
2022-10-25T04:18:00.280Z,100235.47
2022-10-25T04:21:02.351Z,100227.91
2022-10-25T04:24:05.209Z,100228.88
2022-10-25T04:27:07.381Z,100232.91
2022-10-25T04:30:10.096Z,100238.13
2022-10-25T04:33:12.127Z,100241.81
2022-10-25T04:36:14.503Z,100235.25
2022-10-25T04:39:16.576Z,100236.09
2022-10-25T04:42:19.711Z,100233.34
2022-10-25T04:45:21.872Z,100230.84
2022-10-25T04:48:24.275Z,100236.28
2022-10-25T04:51:26.392Z,100237.84
2022-10-25T04:54:28.694Z,100240.28
2022-10-25T04:57:30.763Z,100231.72
2022-10-25T05:00:33.074Z,100229.97
2022-10-25T05:03:35.869Z,100236.19
2022-10-25T05:06:38.189Z,100246.87
2022-10-25T05:09:43.843Z,100252.28
2022-10-25T05:12:49.175Z,100255.06
2022-10-25T05:15:55.583Z,100260.94
2022-10-25T05:18:57.891Z,100267.75
2022-10-25T05:21:59.949Z,100261.13
2022-10-25T05:25:02.269Z,100262.66
2022-10-25T05:28:04.595Z,100256.34
2022-10-25T05:34:16.360Z,100271.28
2022-10-25T05:37:18.665Z,100282.53
2022-10-25T05:40:20.805Z,100294.87
2022-10-25T05:43:24.140Z,100314.94
2022-10-25T05:46:26.592Z,100312.31
2022-10-25T05:49:28.993Z,100314.03
2022-10-25T05:52:31.044Z,100329.00
2022-10-25T05:55:34.191Z,100343.22
2022-10-25T05:58:36.562Z,100359.13
2022-10-25T06:01:41.705Z,100364.81
2022-10-25T06:04:46.868Z,100357.41
2022-10-25T06:07:51.011Z,100348.53
2022-10-25T06:10:53.389Z,100342.28
2022-10-25T06:13:55.893Z,100338.16
2022-10-25T06:16:58.217Z,100352.09
2022-10-25T06:20:00.361Z,100365.41
2022-10-25T06:23:02.768Z,100375.78
2022-10-25T06:26:07.494Z,100387.34
2022-10-25T06:29:09.791Z,100391.84
2022-10-25T06:32:11.847Z,100392.81
2022-10-25T06:35:14.334Z,100399.22
2022-10-25T06:38:16.590Z,100400.22
2022-10-25T06:41:21.467Z,100398.81
2022-10-25T06:44:23.736Z,100402.50
2022-10-25T06:47:26.194Z,100393.97
2022-10-25T06:50:28.279Z,100389.19
2022-10-25T06:53:30.859Z,100404.47
2022-10-25T06:56:32.942Z,100400.13
2022-10-25T06:59:35.260Z,100402.19
2022-10-25T07:02:37.328Z,100397.19
2022-10-25T07:05:41.664Z,100398.66
2022-10-25T07:08:45.622Z,100391.47
2022-10-25T07:11:48.005Z,100389.81
2022-10-25T07:14:50.129Z,100387.94
2022-10-25T07:17:55.125Z,100394.44
2022-10-25T07:21:00.991Z,100385.87
2022-10-25T07:24:03.789Z,100391.94
2022-10-25T07:27:05.908Z,100392.97
2022-10-25T07:30:08.905Z,100405.69
2022-10-25T07:33:10.979Z,100400.09
2022-10-25T07:36:13.317Z,100409.66
2022-10-25T07:39:15.368Z,100404.47
2022-10-25T07:42:17.792Z,100409.94
2022-10-25T07:45:22.295Z,100413.72
2022-10-25T07:48:26.911Z,100419.41
2022-10-25T07:51:28.980Z,100409.50
2022-10-25T07:54:31.419Z,100413.34
2022-10-25T07:57:33.531Z,100411.59
2022-10-25T08:00:36.882Z,100416.66
2022-10-25T08:03:39.227Z,100424.91
2022-10-25T08:06:41.286Z,100424.41
2022-10-25T08:09:43.617Z,100423.03
2022-10-25T08:12:46.884Z,100424.94
2022-10-25T08:15:53.928Z,100417.25
2022-10-25T08:18:55.995Z,100436.50
2022-10-25T08:21:58.487Z,100427.53
2022-10-25T08:25:01.098Z,100421.75
2022-10-25T08:28:03.507Z,100433.25
2022-10-25T08:31:05.878Z,100421.84
2022-10-25T08:34:08.558Z,100419.38
2022-10-25T08:37:12.438Z,100420.19
2022-10-25T08:40:21.203Z,100423.47
2022-10-25T08:43:51.502Z,100423.37
2022-10-25T08:47:07.130Z,100430.31
2022-10-25T08:50:27.154Z,100432.63
2022-10-25T08:53:42.422Z,100438.38
2022-10-25T08:56:56.933Z,100453.53
2022-10-25T09:00:17.351Z,100450.09
2022-10-25T09:03:26.692Z,100449.34
2022-10-25T09:06:40.640Z,100453.16
2022-10-25T09:09:49.555Z,100451.75
2022-10-25T09:13:26.291Z,100459.53
2022-10-25T09:16:50.419Z,100453.03
2022-10-25T09:20:02.443Z,100462.09
2022-10-25T09:23:23.913Z,100465.62
2022-10-25T09:26:38.184Z,100458.19
2022-10-25T09:29:50.594Z,100457.47
2022-10-25T09:33:01.227Z,100462.38
2022-10-25T09:36:04.192Z,100462.81
2022-10-25T09:39:16.125Z,100457.31
2022-10-25T09:42:30.363Z,100460.31
2022-10-25T09:45:52.600Z,100458.75
2022-10-25T09:49:01.255Z,100450.00
2022-10-25T09:52:34.734Z,100455.44
2022-10-25T09:55:57.802Z,100453.91
2022-10-25T09:59:04.285Z,100458.66
2022-10-25T10:02:09.825Z,100468.50
2022-10-25T10:05:20.947Z,100468.09
2022-10-25T10:08:24.509Z,100481.03
2022-10-25T10:11:28.224Z,100477.56
2022-10-25T10:14:54.605Z,100481.53
2022-10-25T10:18:30.006Z,100470.22
2022-10-25T10:21:32.442Z,100470.31
2022-10-25T10:24:37.192Z,100467.19
2022-10-25T10:27:41.398Z,100471.63
2022-10-25T10:30:53.658Z,100472.94
2022-10-25T10:33:55.855Z,100469.94
2022-10-25T10:37:07.874Z,100463.84
2022-10-25T10:40:09.827Z,100461.00
2022-10-25T10:43:27.715Z,100459.59
2022-10-25T10:46:29.768Z,100468.63
2022-10-25T10:49:39.349Z,100476.44
2022-10-25T10:52:45.116Z,100478.28
2022-10-25T10:55:53.485Z,100473.12
2022-10-25T10:58:55.527Z,100470.66
2022-10-25T11:02:10.395Z,100478.00
2022-10-25T11:05:29.303Z,100486.03
2022-10-25T11:08:31.628Z,100490.69
2022-10-25T11:11:33.762Z,100485.97
2022-10-25T11:14:37.019Z,100483.53
2022-10-25T11:18:06.761Z,100470.47
2022-10-25T11:21:25.210Z,100459.88
2022-10-25T11:24:49.887Z,100452.25
2022-10-25T11:28:07.256Z,100452.09
2022-10-25T11:31:41.806Z,100438.97
2022-10-25T11:34:59.274Z,100443.53
2022-10-25T11:38:10.367Z,100444.03
2022-10-25T11:41:29.114Z,100450.47
2022-10-25T11:44:48.668Z,100448.62
2022-10-25T11:48:03.220Z,100438.34
2022-10-25T11:51:42.989Z,100443.59
2022-10-25T11:54:53.818Z,100454.69
2022-10-25T11:58:20.092Z,100450.19
2022-10-25T12:01:37.930Z,100446.69
2022-10-25T12:04:56.932Z,100449.72
2022-10-25T12:08:07.841Z,100446.75
2022-10-25T12:11:18.890Z,100446.53
2022-10-25T12:14:32.104Z,100452.97
2022-10-25T12:17:35.329Z,100446.00
2022-10-25T12:20:38.772Z,100447.03
2022-10-25T12:23:47.307Z,100452.47
2022-10-25T12:26:53.378Z,100453.00
2022-10-25T12:30:07.457Z,100461.72
2022-10-25T12:33:28.494Z,100464.47
2022-10-25T12:36:35.974Z,100464.37
2022-10-25T12:39:45.559Z,100471.31
2022-10-25T12:42:55.540Z,100471.03
2022-10-25T12:46:10.958Z,100470.44
2022-10-25T12:49:48.600Z,100476.00
2022-10-25T12:53:25.591Z,100472.25
2022-10-25T12:56:45.659Z,100475.53
2022-10-25T13:00:04.116Z,100470.00
2022-10-25T13:03:19.584Z,100478.84
2022-10-25T13:06:38.912Z,100460.06
2022-10-25T13:09:41.714Z,100469.06
2022-10-25T13:13:02.117Z,100467.91
2022-10-25T13:16:06.661Z,100461.75
2022-10-25T13:19:30.554Z,100465.09
2022-10-25T13:22:40.011Z,100472.25
2022-10-25T13:25:47.921Z,100466.19
2022-10-25T13:28:52.877Z,100459.00
2022-10-25T13:32:10.209Z,100463.44
2022-10-25T13:35:20.722Z,100467.97
2022-10-25T13:38:24.326Z,100472.31
2022-10-25T13:41:26.650Z,100475.00
2022-10-25T13:44:29.230Z,100469.44
2022-10-25T13:47:49.085Z,100468.50
2022-10-25T13:50:58.578Z,100477.44
2022-10-25T13:54:07.192Z,100475.72
2022-10-25T13:57:47.297Z,100475.72
2022-10-25T14:00:53.029Z,100474.53
2022-10-25T14:04:03.423Z,100478.81
2022-10-25T14:07:40.027Z,100487.56
2022-10-25T14:10:43.154Z,100478.72
2022-10-25T14:13:52.338Z,100494.37
2022-10-25T14:16:55.437Z,100487.72
2022-10-25T14:20:01.265Z,100493.66
2022-10-25T14:23:12.684Z,100484.63
2022-10-25T14:26:17.339Z,100489.69
2022-10-25T14:29:23.438Z,100495.47
2022-10-25T14:32:25.731Z,100497.06
2022-10-25T14:35:34.785Z,100498.25
2022-10-25T14:39:01.065Z,100508.47
2022-10-25T14:42:04.879Z,100506.19
2022-10-25T14:45:19.493Z,100500.78
2022-10-25T14:48:21.878Z,100506.22
2022-10-25T14:51:34.310Z,100502.16
2022-10-25T14:54:37.354Z,100507.63
2022-10-25T14:57:39.422Z,100504.66
2022-10-25T15:00:53.251Z,100513.06
2022-10-25T15:03:59.238Z,100507.22
2022-10-25T15:07:02.895Z,100501.28
2022-10-25T15:13:29.287Z,100501.63
2022-10-25T15:16:37.509Z,100506.19
2022-10-25T15:20:01.828Z,100505.47
2022-10-25T15:23:14.605Z,100504.91
2022-10-25T15:26:29.482Z,100511.47
2022-10-25T15:29:45.935Z,100514.25
2022-10-25T15:32:48.630Z,100519.81
2022-10-25T15:35:56.347Z,100521.16
